sensor_id;sensor_type;location;lat;lon;timestamp;P1;durP1;ratioP1;P2;durP2;ratioP2
40314;SDS011;26021;45.640;11.302;2024-03-25T00:00:59;5.00;;;3.72;;
40314;SDS011;26021;45.640;11.302;2024-03-25T00:03:24;6.55;;;3.97;;
40314;SDS011;26021;45.640;11.302;2024-03-25T00:05:50;5.20;;;3.55;;
40314;SDS011;26021;45.640;11.302;2024-03-25T00:08:15;4.95;;;3.00;;
40314;SDS011;26021;45.640;11.302;2024-03-25T00:10:41;4.47;;;2.03;;
40314;SDS011;26021;45.640;11.302;2024-03-25T00:13:06;2.65;;;2.42;;
40314;SDS011;26021;45.640;11.302;2024-03-25T00:15:32;3.13;;;2.08;;
40314;SDS011;26021;45.640;11.302;2024-03-25T00:17:59;1.73;;;1.63;;
40314;SDS011;26021;45.640;11.302;2024-03-25T00:20:24;3.67;;;1.80;;
40314;SDS011;26021;45.640;11.302;2024-03-25T00:22:50;3.10;;;1.75;;
40314;SDS011;26021;45.640;11.302;2024-03-25T00:25:15;2.20;;;1.98;;
40314;SDS011;26021;45.640;11.302;2024-03-25T00:27:42;1.90;;;1.80;;
40314;SDS011;26021;45.640;11.302;2024-03-25T00:30:08;2.25;;;2.00;;
40314;SDS011;26021;45.640;11.302;2024-03-25T00:32:34;6.40;;;2.22;;
40314;SDS011;26021;45.640;11.302;2024-03-25T00:35:00;5.20;;;2.33;;
40314;SDS011;26021;45.640;11.302;2024-03-25T00:37:25;3.42;;;2.50;;
40314;SDS011;26021;45.640;11.302;2024-03-25T00:39:51;3.83;;;2.20;;
40314;SDS011;26021;45.640;11.302;2024-03-25T00:42:16;3.45;;;2.80;;
40314;SDS011;26021;45.640;11.302;2024-03-25T00:44:42;4.18;;;2.25;;
40314;SDS011;26021;45.640;11.302;2024-03-25T00:47:07;3.63;;;2.40;;
40314;SDS011;26021;45.640;11.302;2024-03-25T00:49:32;3.42;;;2.25;;
40314;SDS011;26021;45.640;11.302;2024-03-25T00:51:59;2.47;;;1.83;;
40314;SDS011;26021;45.640;11.302;2024-03-25T00:54:24;4.55;;;2.28;;
40314;SDS011;26021;45.640;11.302;2024-03-25T00:56:50;1.77;;;1.67;;
40314;SDS011;26021;45.640;11.302;2024-03-25T00:59:16;3.17;;;2.08;;
40314;SDS011;26021;45.640;11.302;2024-03-25T01:01:42;2.40;;;2.20;;
40314;SDS011;26021;45.640;11.302;2024-03-25T01:04:07;3.45;;;2.55;;
40314;SDS011;26021;45.640;11.302;2024-03-25T01:06:32;2.72;;;2.10;;
40314;SDS011;26021;45.640;11.302;2024-03-25T01:08:58;4.53;;;2.03;;
40314;SDS011;26021;45.640;11.302;2024-03-25T01:11:24;2.05;;;1.85;;
40314;SDS011;26021;45.640;11.302;2024-03-25T01:13:49;2.85;;;1.95;;
40314;SDS011;26021;45.640;11.302;2024-03-25T01:16:15;2.47;;;1.98;;
40314;SDS011;26021;45.640;11.302;2024-03-25T01:18:40;2.65;;;1.83;;
40314;SDS011;26021;45.640;11.302;2024-03-25T01:21:06;1.80;;;1.65;;
40314;SDS011;26021;45.640;11.302;2024-03-25T01:23:31;2.20;;;1.48;;
40314;SDS011;26021;45.640;11.302;2024-03-25T01:25:57;2.42;;;1.67;;
40314;SDS011;26021;45.640;11.302;2024-03-25T01:28:22;3.65;;;1.80;;
40314;SDS011;26021;45.640;11.302;2024-03-25T01:30:48;2.97;;;1.60;;
40314;SDS011;26021;45.640;11.302;2024-03-25T01:33:14;2.28;;;1.90;;
40314;SDS011;26021;45.640;11.302;2024-03-25T01:35:40;3.40;;;1.73;;
40314;SDS011;26021;45.640;11.302;2024-03-25T01:38:05;2.53;;;1.90;;
40314;SDS011;26021;45.640;11.302;2024-03-25T01:40:31;1.90;;;1.40;;
40314;SDS011;26021;45.640;11.302;2024-03-25T01:43:00;1.95;;;1.50;;
40314;SDS011;26021;45.640;11.302;2024-03-25T01:45:30;1.40;;;1.17;;
40314;SDS011;26021;45.640;11.302;2024-03-25T01:48:01;1.23;;;1.02;;
40314;SDS011;26021;45.640;11.302;2024-03-25T01:50:30;1.85;;;1.30;;
40314;SDS011;26021;45.640;11.302;2024-03-25T01:52:58;1.88;;;1.20;;
40314;SDS011;26021;45.640;11.302;2024-03-25T01:55:27;1.40;;;1.30;;
40314;SDS011;26021;45.640;11.302;2024-03-25T01:57:54;1.98;;;1.58;;
40314;SDS011;26021;45.640;11.302;2024-03-25T02:00:20;1.17;;;1.08;;
40314;SDS011;26021;45.640;11.302;2024-03-25T02:02:47;1.85;;;1.30;;
40314;SDS011;26021;45.640;11.302;2024-03-25T02:05:17;1.70;;;1.23;;
40314;SDS011;26021;45.640;11.302;2024-03-25T02:07:45;1.33;;;1.10;;
40314;SDS011;26021;45.640;11.302;2024-03-25T02:10:12;1.05;;;0.80;;
40314;SDS011;26021;45.640;11.302;2024-03-25T02:12:41;1.65;;;1.00;;
40314;SDS011;26021;45.640;11.302;2024-03-25T02:15:08;1.30;;;0.95;;
40314;SDS011;26021;45.640;11.302;2024-03-25T02:17:34;1.33;;;1.10;;
40314;SDS011;26021;45.640;11.302;2024-03-25T02:20:04;1.17;;;0.98;;
40314;SDS011;26021;45.640;11.302;2024-03-25T02:22:31;0.85;;;0.85;;
40314;SDS011;26021;45.640;11.302;2024-03-25T02:24:58;1.50;;;1.00;;
40314;SDS011;26021;45.640;11.302;2024-03-25T02:27:26;1.20;;;1.10;;
40314;SDS011;26021;45.640;11.302;2024-03-25T02:30:01;2.53;;;1.20;;
40314;SDS011;26021;45.640;11.302;2024-03-25T02:32:27;1.23;;;0.80;;
40314;SDS011;26021;45.640;11.302;2024-03-25T02:34:54;1.10;;;1.00;;
40314;SDS011;26021;45.640;11.302;2024-03-25T02:37:21;0.95;;;0.95;;
40314;SDS011;26021;45.640;11.302;2024-03-25T02:39:47;3.35;;;1.30;;
40314;SDS011;26021;45.640;11.302;2024-03-25T02:42:13;5.20;;;1.35;;
40314;SDS011;26021;45.640;11.302;2024-03-25T02:44:38;2.58;;;1.20;;
40314;SDS011;26021;45.640;11.302;2024-03-25T02:47:08;1.40;;;1.10;;
40314;SDS011;26021;45.640;11.302;2024-03-25T02:49:34;1.17;;;1.00;;
40314;SDS011;26021;45.640;11.302;2024-03-25T02:52:00;3.33;;;1.00;;
40314;SDS011;26021;45.640;11.302;2024-03-25T02:54:26;2.13;;;1.20;;
40314;SDS011;26021;45.640;11.302;2024-03-25T02:56:52;1.67;;;1.35;;
40314;SDS011;26021;45.640;11.302;2024-03-25T02:59:17;1.42;;;1.10;;
40314;SDS011;26021;45.640;11.302;2024-03-25T03:01:43;2.75;;;1.10;;
40314;SDS011;26021;45.640;11.302;2024-03-25T03:04:08;1.52;;;1.20;;
40314;SDS011;26021;45.640;11.302;2024-03-25T03:06:34;4.13;;;1.70;;
40314;SDS011;26021;45.640;11.302;2024-03-25T03:08:59;0.90;;;0.82;;
40314;SDS011;26021;45.640;11.302;2024-03-25T03:11:24;1.95;;;0.93;;
40314;SDS011;26021;45.640;11.302;2024-03-25T03:13:50;1.02;;;0.75;;
40314;SDS011;26021;45.640;11.302;2024-03-25T03:16:15;0.88;;;0.80;;
40314;SDS011;26021;45.640;11.302;2024-03-25T03:18:41;0.98;;;0.88;;
40314;SDS011;26021;45.640;11.302;2024-03-25T03:21:07;1.20;;;1.00;;
40314;SDS011;26021;45.640;11.302;2024-03-25T03:23:32;0.93;;;0.68;;
40314;SDS011;26021;45.640;11.302;2024-03-25T03:25:57;1.02;;;0.70;;
40314;SDS011;26021;45.640;11.302;2024-03-25T03:28:24;0.60;;;0.60;;
40314;SDS011;26021;45.640;11.302;2024-03-25T03:30:50;1.40;;;0.60;;
40314;SDS011;26021;45.640;11.302;2024-03-25T03:33:15;0.80;;;0.80;;
40314;SDS011;26021;45.640;11.302;2024-03-25T03:35:42;1.38;;;0.60;;
40314;SDS011;26021;45.640;11.302;2024-03-25T03:38:07;1.35;;;0.80;;
40314;SDS011;26021;45.640;11.302;2024-03-25T03:40:33;1.20;;;1.08;;
40314;SDS011;26021;45.640;11.302;2024-03-25T03:42:58;1.23;;;1.10;;
40314;SDS011;26021;45.640;11.302;2024-03-25T03:45:24;2.53;;;1.40;;
40314;SDS011;26021;45.640;11.302;2024-03-25T03:47:50;1.02;;;0.88;;
40314;SDS011;26021;45.640;11.302;2024-03-25T03:50:16;2.08;;;1.00;;
40314;SDS011;26021;45.640;11.302;2024-03-25T03:52:41;0.98;;;0.80;;
40314;SDS011;26021;45.640;11.302;2024-03-25T03:55:07;1.58;;;0.80;;
40314;SDS011;26021;45.640;11.302;2024-03-25T03:57:34;1.20;;;0.90;;
40314;SDS011;26021;45.640;11.302;2024-03-25T04:00:00;3.03;;;1.10;;
40314;SDS011;26021;45.640;11.302;2024-03-25T04:02:27;2.00;;;1.40;;
40314;SDS011;26021;45.640;11.302;2024-03-25T04:04:53;1.27;;;1.17;;
40314;SDS011;26021;45.640;11.302;2024-03-25T04:07:19;1.25;;;1.15;;
40314;SDS011;26021;45.640;11.302;2024-03-25T04:09:44;1.20;;;1.10;;
40314;SDS011;26021;45.640;11.302;2024-03-25T04:12:10;1.20;;;1.10;;
40314;SDS011;26021;45.640;11.302;2024-03-25T04:14:35;2.55;;;1.40;;
40314;SDS011;26021;45.640;11.302;2024-03-25T04:17:01;1.55;;;1.13;;
40314;SDS011;26021;45.640;11.302;2024-03-25T04:19:27;0.90;;;0.63;;
40314;SDS011;26021;45.640;11.302;2024-03-25T04:21:54;0.55;;;0.55;;
40314;SDS011;26021;45.640;11.302;2024-03-25T04:24:19;2.20;;;1.00;;
40314;SDS011;26021;45.640;11.302;2024-03-25T04:26:45;1.30;;;1.10;;
40314;SDS011;26021;45.640;11.302;2024-03-25T04:29:11;0.80;;;0.80;;
40314;SDS011;26021;45.640;11.302;2024-03-25T04:31:36;0.90;;;0.90;;
40314;SDS011;26021;45.640;11.302;2024-03-25T04:34:02;1.00;;;0.80;;
40314;SDS011;26021;45.640;11.302;2024-03-25T04:36:29;2.15;;;0.80;;
40314;SDS011;26021;45.640;11.302;2024-03-25T04:38:55;0.70;;;0.70;;
40314;SDS011;26021;45.640;11.302;2024-03-25T04:41:20;0.50;;;0.50;;
40314;SDS011;26021;45.640;11.302;2024-03-25T04:43:46;2.13;;;0.80;;
40314;SDS011;26021;45.640;11.302;2024-03-25T04:46:11;0.80;;;0.80;;
40314;SDS011;26021;45.640;11.302;2024-03-25T04:48:37;0.65;;;0.65;;
40314;SDS011;26021;45.640;11.302;2024-03-25T04:51:02;1.30;;;0.85;;
40314;SDS011;26021;45.640;11.302;2024-03-25T04:53:28;1.77;;;1.27;;
40314;SDS011;26021;45.640;11.302;2024-03-25T04:55:54;1.90;;;0.85;;
40314;SDS011;26021;45.640;11.302;2024-03-25T04:58:19;1.55;;;1.10;;
40314;SDS011;26021;45.640;11.302;2024-03-25T05:00:45;1.27;;;1.17;;
40314;SDS011;26021;45.640;11.302;2024-03-25T05:03:11;1.92;;;1.38;;
40314;SDS011;26021;45.640;11.302;2024-03-25T05:05:36;1.02;;;1.02;;
40314;SDS011;26021;45.640;11.302;2024-03-25T05:08:01;1.63;;;1.42;;
40314;SDS011;26021;45.640;11.302;2024-03-25T05:10:28;2.22;;;1.20;;
40314;SDS011;26021;45.640;11.302;2024-03-25T05:12:54;1.08;;;0.98;;
40314;SDS011;26021;45.640;11.302;2024-03-25T05:15:20;1.40;;;0.90;;
40314;SDS011;26021;45.640;11.302;2024-03-25T05:17:46;4.70;;;3.50;;
40314;SDS011;26021;45.640;11.302;2024-03-25T05:20:11;1.90;;;1.63;;
40314;SDS011;26021;45.640;11.302;2024-03-25T05:22:37;1.60;;;1.50;;
40314;SDS011;26021;45.640;11.302;2024-03-25T05:25:02;1.50;;;1.30;;
40314;SDS011;26021;45.640;11.302;2024-03-25T05:27:28;1.35;;;1.25;;
40314;SDS011;26021;45.640;11.302;2024-03-25T05:29:53;3.38;;;1.52;;
40314;SDS011;26021;45.640;11.302;2024-03-25T05:32:18;1.42;;;1.20;;
40314;SDS011;26021;45.640;11.302;2024-03-25T05:34:46;1.23;;;1.13;;
40314;SDS011;26021;45.640;11.302;2024-03-25T05:37:13;1.48;;;1.20;;
40314;SDS011;26021;45.640;11.302;2024-03-25T05:39:39;1.88;;;1.20;;
40314;SDS011;26021;45.640;11.302;2024-03-25T05:42:04;1.77;;;0.90;;
40314;SDS011;26021;45.640;11.302;2024-03-25T05:44:30;2.13;;;1.35;;
40314;SDS011;26021;45.640;11.302;2024-03-25T05:46:55;1.67;;;1.20;;
40314;SDS011;26021;45.640;11.302;2024-03-25T05:49:21;3.03;;;1.63;;
40314;SDS011;26021;45.640;11.302;2024-03-25T05:51:46;2.25;;;1.05;;
40314;SDS011;26021;45.640;11.302;2024-03-25T05:54:12;1.42;;;1.23;;
40314;SDS011;26021;45.640;11.302;2024-03-25T05:56:38;1.50;;;1.25;;
40314;SDS011;26021;45.640;11.302;2024-03-25T05:59:03;7.85;;;3.92;;
40314;SDS011;26021;45.640;11.302;2024-03-25T06:01:29;2.30;;;1.80;;
40314;SDS011;26021;45.640;11.302;2024-03-25T06:03:54;2.03;;;1.83;;
40314;SDS011;26021;45.640;11.302;2024-03-25T06:06:20;2.13;;;1.90;;
40314;SDS011;26021;45.640;11.302;2024-03-25T06:08:46;2.20;;;2.00;;
40314;SDS011;26021;45.640;11.302;2024-03-25T06:11:11;2.22;;;1.77;;
40314;SDS011;26021;45.640;11.302;2024-03-25T06:13:36;2.05;;;1.58;;
40314;SDS011;26021;45.640;11.302;2024-03-25T06:16:02;3.47;;;1.83;;
40314;SDS011;26021;45.640;11.302;2024-03-25T06:18:28;1.45;;;1.27;;
40314;SDS011;26021;45.640;11.302;2024-03-25T06:20:54;3.15;;;1.50;;
40314;SDS011;26021;45.640;11.302;2024-03-25T06:23:25;1.45;;;1.27;;
40314;SDS011;26021;45.640;11.302;2024-03-25T06:25:52;1.67;;;1.58;;
40314;SDS011;26021;45.640;11.302;2024-03-25T06:28:19;1.40;;;1.10;;
40314;SDS011;26021;45.640;11.302;2024-03-25T06:30:45;3.13;;;1.63;;
40314;SDS011;26021;45.640;11.302;2024-03-25T06:33:29;3.38;;;2.00;;
40314;SDS011;26021;45.640;11.302;2024-03-25T06:36:13;2.65;;;1.80;;
40314;SDS011;26021;45.640;11.302;2024-03-25T06:38:39;1.45;;;1.35;;
40314;SDS011;26021;45.640;11.302;2024-03-25T06:41:04;4.40;;;2.15;;
40314;SDS011;26021;45.640;11.302;2024-03-25T06:43:30;3.08;;;1.90;;
40314;SDS011;26021;45.640;11.302;2024-03-25T06:45:55;3.15;;;1.80;;
40314;SDS011;26021;45.640;11.302;2024-03-25T06:48:21;4.47;;;1.92;;
40314;SDS011;26021;45.640;11.302;2024-03-25T06:50:56;2.33;;;1.70;;
40314;SDS011;26021;45.640;11.302;2024-03-25T06:53:22;2.67;;;1.83;;
40314;SDS011;26021;45.640;11.302;2024-03-25T06:55:51;3.28;;;1.67;;
40314;SDS011;26021;45.640;11.302;2024-03-25T06:58:21;4.65;;;1.98;;
40314;SDS011;26021;45.640;11.302;2024-03-25T07:00:47;3.53;;;2.00;;
40314;SDS011;26021;45.640;11.302;2024-03-25T07:03:14;3.20;;;2.15;;
40314;SDS011;26021;45.640;11.302;2024-03-25T07:05:46;3.70;;;1.77;;
40314;SDS011;26021;45.640;11.302;2024-03-25T07:08:14;3.25;;;1.90;;
40314;SDS011;26021;45.640;11.302;2024-03-25T07:10:43;2.72;;;2.20;;
40314;SDS011;26021;45.640;11.302;2024-03-25T07:13:08;4.25;;;2.38;;
40314;SDS011;26021;45.640;11.302;2024-03-25T07:15:34;5.13;;;3.75;;
40314;SDS011;26021;45.640;11.302;2024-03-25T07:17:59;4.57;;;2.22;;
40314;SDS011;26021;45.640;11.302;2024-03-25T07:20:25;3.70;;;1.88;;
40314;SDS011;26021;45.640;11.302;2024-03-25T07:22:51;2.72;;;1.35;;
40314;SDS011;26021;45.640;11.302;2024-03-25T07:25:20;2.10;;;1.67;;
40314;SDS011;26021;45.640;11.302;2024-03-25T07:27:46;2.28;;;2.03;;
40314;SDS011;26021;45.640;11.302;2024-03-25T07:30:11;3.65;;;2.33;;
40314;SDS011;26021;45.640;11.302;2024-03-25T07:32:37;3.55;;;2.15;;
40314;SDS011;26021;45.640;11.302;2024-03-25T07:35:03;2.22;;;1.30;;
40314;SDS011;26021;45.640;11.302;2024-03-25T07:37:29;1.77;;;1.67;;
40314;SDS011;26021;45.640;11.302;2024-03-25T07:39:56;2.55;;;1.50;;
40314;SDS011;26021;45.640;11.302;2024-03-25T07:42:21;2.47;;;1.80;;
40314;SDS011;26021;45.640;11.302;2024-03-25T07:44:47;2.30;;;1.67;;
40314;SDS011;26021;45.640;11.302;2024-03-25T07:47:12;1.85;;;1.63;;
40314;SDS011;26021;45.640;11.302;2024-03-25T07:49:38;2.90;;;1.50;;
40314;SDS011;26021;45.640;11.302;2024-03-25T07:52:05;3.22;;;1.63;;
40314;SDS011;26021;45.640;11.302;2024-03-25T07:54:31;1.40;;;1.30;;
40314;SDS011;26021;45.640;11.302;2024-03-25T07:56:56;2.72;;;1.48;;
40314;SDS011;26021;45.640;11.302;2024-03-25T07:59:22;1.73;;;1.63;;
40314;SDS011;26021;45.640;11.302;2024-03-25T08:01:47;3.67;;;1.77;;
40314;SDS011;26021;45.640;11.302;2024-03-25T08:04:12;2.38;;;1.77;;
40314;SDS011;26021;45.640;11.302;2024-03-25T08:06:38;2.10;;;1.88;;
40314;SDS011;26021;45.640;11.302;2024-03-25T08:09:03;3.10;;;1.70;;
40314;SDS011;26021;45.640;11.302;2024-03-25T08:11:32;2.50;;;1.58;;
40314;SDS011;26021;45.640;11.302;2024-03-25T08:13:58;2.03;;;1.20;;
40314;SDS011;26021;45.640;11.302;2024-03-25T08:16:23;3.58;;;2.05;;
40314;SDS011;26021;45.640;11.302;2024-03-25T08:18:49;1.38;;;1.23;;
40314;SDS011;26021;45.640;11.302;2024-03-25T08:21:15;1.83;;;1.60;;
40314;SDS011;26021;45.640;11.302;2024-03-25T08:23:41;5.00;;;2.22;;
40314;SDS011;26021;45.640;11.302;2024-03-25T08:26:06;5.40;;;2.33;;
40314;SDS011;26021;45.640;11.302;2024-03-25T08:28:34;3.55;;;1.42;;
40314;SDS011;26021;45.640;11.302;2024-03-25T08:30:59;2.53;;;1.20;;
40314;SDS011;26021;45.640;11.302;2024-03-25T08:33:24;1.05;;;0.98;;
40314;SDS011;26021;45.640;11.302;2024-03-25T08:35:50;1.00;;;1.00;;
40314;SDS011;26021;45.640;11.302;2024-03-25T08:38:15;2.42;;;1.10;;
40314;SDS011;26021;45.640;11.302;2024-03-25T08:40:41;1.30;;;0.80;;
40314;SDS011;26021;45.640;11.302;2024-03-25T08:43:06;1.17;;;0.77;;
40314;SDS011;26021;45.640;11.302;2024-03-25T08:45:32;1.58;;;1.27;;
40314;SDS011;26021;45.640;11.302;2024-03-25T08:47:57;2.75;;;1.23;;
40314;SDS011;26021;45.640;11.302;2024-03-25T08:50:23;1.70;;;1.25;;
40314;SDS011;26021;45.640;11.302;2024-03-25T08:52:48;1.98;;;1.20;;
40314;SDS011;26021;45.640;11.302;2024-03-25T08:55:14;1.48;;;0.90;;
40314;SDS011;26021;45.640;11.302;2024-03-25T08:57:40;1.50;;;1.23;;
40314;SDS011;26021;45.640;11.302;2024-03-25T09:00:05;1.88;;;1.05;;
40314;SDS011;26021;45.640;11.302;2024-03-25T09:02:35;1.17;;;1.10;;
40314;SDS011;26021;45.640;11.302;2024-03-25T09:05:04;5.35;;;1.30;;
40314;SDS011;26021;45.640;11.302;2024-03-25T09:07:30;1.40;;;1.30;;
40314;SDS011;26021;45.640;11.302;2024-03-25T09:09:56;1.48;;;1.10;;
40314;SDS011;26021;45.640;11.302;2024-03-25T09:12:40;1.73;;;1.40;;
40314;SDS011;26021;45.640;11.302;2024-03-25T09:15:06;1.88;;;1.63;;
40314;SDS011;26021;45.640;11.302;2024-03-25T09:17:31;2.60;;;1.60;;
40314;SDS011;26021;45.640;11.302;2024-03-25T09:19:57;5.15;;;1.85;;
40314;SDS011;26021;45.640;11.302;2024-03-25T09:22:22;4.38;;;1.90;;
40314;SDS011;26021;45.640;11.302;2024-03-25T09:24:48;2.05;;;1.80;;
40314;SDS011;26021;45.640;11.302;2024-03-25T09:27:14;4.95;;;2.00;;
40314;SDS011;26021;45.640;11.302;2024-03-25T09:29:41;2.42;;;1.80;;
40314;SDS011;26021;45.640;11.302;2024-03-25T09:32:07;3.25;;;2.55;;
40314;SDS011;26021;45.640;11.302;2024-03-25T09:34:32;4.25;;;3.00;;
40314;SDS011;26021;45.640;11.302;2024-03-25T09:36:58;6.22;;;3.30;;
40314;SDS011;26021;45.640;11.302;2024-03-25T09:39:23;5.60;;;3.00;;
40314;SDS011;26021;45.640;11.302;2024-03-25T09:41:49;6.72;;;3.55;;
40314;SDS011;26021;45.640;11.302;2024-03-25T09:44:17;7.43;;;3.28;;
40314;SDS011;26021;45.640;11.302;2024-03-25T09:46:44;7.57;;;3.60;;
40314;SDS011;26021;45.640;11.302;2024-03-25T09:49:09;8.85;;;3.65;;
40314;SDS011;26021;45.640;11.302;2024-03-25T09:51:35;5.88;;;3.97;;
40314;SDS011;26021;45.640;11.302;2024-03-25T09:54:00;7.15;;;4.30;;
40314;SDS011;26021;45.640;11.302;2024-03-25T09:56:26;5.72;;;3.92;;
40314;SDS011;26021;45.640;11.302;2024-03-25T09:58:51;7.07;;;4.22;;
40314;SDS011;26021;45.640;11.302;2024-03-25T10:01:17;5.85;;;4.05;;
40314;SDS011;26021;45.640;11.302;2024-03-25T10:03:43;5.97;;;4.00;;
40314;SDS011;26021;45.640;11.302;2024-03-25T10:06:09;7.82;;;4.50;;
40314;SDS011;26021;45.640;11.302;2024-03-25T10:08:35;6.78;;;5.03;;
40314;SDS011;26021;45.640;11.302;2024-03-25T10:11:00;7.28;;;4.60;;
40314;SDS011;26021;45.640;11.302;2024-03-25T10:13:27;6.00;;;3.88;;
40314;SDS011;26021;45.640;11.302;2024-03-25T10:15:52;9.43;;;4.30;;
40314;SDS011;26021;45.640;11.302;2024-03-25T10:18:19;5.90;;;4.70;;
40314;SDS011;26021;45.640;11.302;2024-03-25T10:20:51;7.05;;;4.40;;
40314;SDS011;26021;45.640;11.302;2024-03-25T10:23:20;6.93;;;4.38;;
40314;SDS011;26021;45.640;11.302;2024-03-25T10:25:48;5.45;;;4.07;;
40314;SDS011;26021;45.640;11.302;2024-03-25T10:28:13;5.65;;;4.00;;
40314;SDS011;26021;45.640;11.302;2024-03-25T10:30:39;5.38;;;4.15;;
40314;SDS011;26021;45.640;11.302;2024-03-25T10:33:06;5.97;;;3.83;;
40314;SDS011;26021;45.640;11.302;2024-03-25T10:35:34;6.10;;;4.00;;
40314;SDS011;26021;45.640;11.302;2024-03-25T10:38:02;8.30;;;4.35;;
40314;SDS011;26021;45.640;11.302;2024-03-25T10:40:31;5.72;;;4.25;;
40314;SDS011;26021;45.640;11.302;2024-03-25T10:43:01;4.78;;;4.25;;
40314;SDS011;26021;45.640;11.302;2024-03-25T10:45:31;7.95;;;4.07;;
40314;SDS011;26021;45.640;11.302;2024-03-25T10:50:40;6.03;;;3.80;;
40314;SDS011;26021;45.640;11.302;2024-03-25T10:53:08;5.53;;;4.00;;
40314;SDS011;26021;45.640;11.302;2024-03-25T10:55:36;7.20;;;4.15;;
40314;SDS011;26021;45.640;11.302;2024-03-25T10:58:02;4.97;;;4.05;;
40314;SDS011;26021;45.640;11.302;2024-03-25T11:00:29;8.05;;;4.15;;
40314;SDS011;26021;45.640;11.302;2024-03-25T11:02:55;6.63;;;4.40;;
40314;SDS011;26021;45.640;11.302;2024-03-25T11:05:21;7.93;;;3.67;;
40314;SDS011;26021;45.640;11.302;2024-03-25T11:07:47;5.82;;;4.38;;
40314;SDS011;26021;45.640;11.302;2024-03-25T11:10:13;6.95;;;4.22;;
40314;SDS011;26021;45.640;11.302;2024-03-25T11:12:40;7.43;;;4.25;;
40314;SDS011;26021;45.640;11.302;2024-03-25T11:15:07;4.97;;;4.28;;
40314;SDS011;26021;45.640;11.302;2024-03-25T11:17:34;5.32;;;4.13;;
40314;SDS011;26021;45.640;11.302;2024-03-25T11:20:09;6.18;;;3.67;;
40314;SDS011;26021;45.640;11.302;2024-03-25T11:22:35;4.03;;;3.35;;
40314;SDS011;26021;45.640;11.302;2024-03-25T11:25:05;4.18;;;3.38;;
40314;SDS011;26021;45.640;11.302;2024-03-25T11:27:33;4.80;;;3.45;;
40314;SDS011;26021;45.640;11.302;2024-03-25T11:30:01;6.35;;;3.50;;
40314;SDS011;26021;45.640;11.302;2024-03-25T11:32:26;5.03;;;2.70;;
40314;SDS011;26021;45.640;11.302;2024-03-25T11:34:52;6.20;;;3.28;;
40314;SDS011;26021;45.640;11.302;2024-03-25T11:37:18;3.88;;;3.47;;
40314;SDS011;26021;45.640;11.302;2024-03-25T11:39:43;3.42;;;3.10;;
40314;SDS011;26021;45.640;11.302;2024-03-25T11:42:08;2.55;;;2.35;;
40314;SDS011;26021;45.640;11.302;2024-03-25T11:44:37;2.10;;;1.85;;
40314;SDS011;26021;45.640;11.302;2024-03-25T11:47:05;3.50;;;1.52;;
40314;SDS011;26021;45.640;11.302;2024-03-25T11:49:36;1.80;;;1.70;;
40314;SDS011;26021;45.640;11.302;2024-03-25T11:52:06;2.38;;;1.92;;
40314;SDS011;26021;45.640;11.302;2024-03-25T11:54:31;2.20;;;1.60;;
40314;SDS011;26021;45.640;11.302;2024-03-25T11:56:57;1.60;;;1.50;;
40314;SDS011;26021;45.640;11.302;2024-03-25T11:59:22;1.77;;;1.42;;
40314;SDS011;26021;45.640;11.302;2024-03-25T12:01:49;1.25;;;1.15;;
40314;SDS011;26021;45.640;11.302;2024-03-25T12:04:16;1.65;;;1.55;;
40314;SDS011;26021;45.640;11.302;2024-03-25T12:06:42;3.17;;;1.75;;
40314;SDS011;26021;45.640;11.302;2024-03-25T12:09:09;2.25;;;1.50;;
40314;SDS011;26021;45.640;11.302;2024-03-25T12:11:56;2.15;;;1.60;;
40314;SDS011;26021;45.640;11.302;2024-03-25T12:14:23;3.67;;;1.95;;
40314;SDS011;26021;45.640;11.302;2024-03-25T12:16:51;4.50;;;3.17;;
40314;SDS011;26021;45.640;11.302;2024-03-25T12:19:19;4.57;;;3.40;;
40314;SDS011;26021;45.640;11.302;2024-03-25T12:21:44;4.25;;;3.70;;
40314;SDS011;26021;45.640;11.302;2024-03-25T12:24:10;4.45;;;4.07;;
40314;SDS011;26021;45.640;11.302;2024-03-25T12:26:36;5.15;;;3.40;;
40314;SDS011;26021;45.640;11.302;2024-03-25T12:29:02;4.63;;;3.08;;
40314;SDS011;26021;45.640;11.302;2024-03-25T12:31:29;3.55;;;2.65;;
40314;SDS011;26021;45.640;11.302;2024-03-25T12:33:55;2.47;;;2.28;;
40314;SDS011;26021;45.640;11.302;2024-03-25T12:36:20;5.03;;;3.03;;
40314;SDS011;26021;45.640;11.302;2024-03-25T12:38:53;3.20;;;2.72;;
40314;SDS011;26021;45.640;11.302;2024-03-25T12:41:21;3.53;;;2.78;;
40314;SDS011;26021;45.640;11.302;2024-03-25T12:43:48;4.72;;;3.38;;
40314;SDS011;26021;45.640;11.302;2024-03-25T12:46:15;2.88;;;2.67;;
40314;SDS011;26021;45.640;11.302;2024-03-25T12:48:40;4.45;;;2.75;;
40314;SDS011;26021;45.640;11.302;2024-03-25T12:51:11;3.53;;;2.80;;
40314;SDS011;26021;45.640;11.302;2024-03-25T12:53:38;4.10;;;2.40;;
40314;SDS011;26021;45.640;11.302;2024-03-25T12:56:03;4.68;;;2.90;;
40314;SDS011;26021;45.640;11.302;2024-03-25T12:58:28;6.18;;;3.08;;
40314;SDS011;26021;45.640;11.302;2024-03-25T13:00:55;5.47;;;2.97;;
40314;SDS011;26021;45.640;11.302;2024-03-25T13:03:21;7.28;;;3.10;;
40314;SDS011;26021;45.640;11.302;2024-03-25T13:05:46;4.53;;;3.25;;
40314;SDS011;26021;45.640;11.302;2024-03-25T13:08:12;4.35;;;3.42;;
40314;SDS011;26021;45.640;11.302;2024-03-25T13:10:37;5.18;;;3.08;;
40314;SDS011;26021;45.640;11.302;2024-03-25T13:13:03;3.47;;;3.15;;
40314;SDS011;26021;45.640;11.302;2024-03-25T13:15:30;7.13;;;3.50;;
40314;SDS011;26021;45.640;11.302;2024-03-25T13:17:56;5.25;;;3.60;;
40314;SDS011;26021;45.640;11.302;2024-03-25T13:20:22;3.95;;;3.53;;
40314;SDS011;26021;45.640;11.302;2024-03-25T13:22:48;5.55;;;3.38;;
40314;SDS011;26021;45.640;11.302;2024-03-25T13:25:14;4.03;;;3.63;;
40314;SDS011;26021;45.640;11.302;2024-03-25T13:27:40;5.03;;;3.60;;
40314;SDS011;26021;45.640;11.302;2024-03-25T13:30:06;4.35;;;3.45;;
40314;SDS011;26021;45.640;11.302;2024-03-25T13:32:32;4.75;;;3.53;;
40314;SDS011;26021;45.640;11.302;2024-03-25T13:34:57;3.95;;;3.63;;
40314;SDS011;26021;45.640;11.302;2024-03-25T13:37:23;6.50;;;3.72;;
40314;SDS011;26021;45.640;11.302;2024-03-25T13:39:48;4.22;;;3.60;;
40314;SDS011;26021;45.640;11.302;2024-03-25T13:42:15;6.20;;;3.78;;
40314;SDS011;26021;45.640;11.302;2024-03-25T13:44:42;4.95;;;3.60;;
40314;SDS011;26021;45.640;11.302;2024-03-25T13:47:07;4.32;;;3.50;;
40314;SDS011;26021;45.640;11.302;2024-03-25T13:49:36;4.05;;;3.60;;
40314;SDS011;26021;45.640;11.302;2024-03-25T13:52:02;4.68;;;3.53;;
40314;SDS011;26021;45.640;11.302;2024-03-25T13:54:28;6.53;;;4.03;;
40314;SDS011;26021;45.640;11.302;2024-03-25T13:56:55;8.90;;;4.13;;
40314;SDS011;26021;45.640;11.302;2024-03-25T13:59:21;9.18;;;3.95;;
40314;SDS011;26021;45.640;11.302;2024-03-25T14:01:47;3.22;;;3.00;;
40314;SDS011;26021;45.640;11.302;2024-03-25T14:04:12;7.55;;;3.53;;
40314;SDS011;26021;45.640;11.302;2024-03-25T14:06:38;5.93;;;3.70;;
40314;SDS011;26021;45.640;11.302;2024-03-25T14:09:05;5.60;;;3.58;;
40314;SDS011;26021;45.640;11.302;2024-03-25T14:11:34;4.28;;;3.80;;
40314;SDS011;26021;45.640;11.302;2024-03-25T14:14:00;4.93;;;4.15;;
40314;SDS011;26021;45.640;11.302;2024-03-25T14:16:25;4.78;;;3.95;;
40314;SDS011;26021;45.640;11.302;2024-03-25T14:18:51;6.60;;;3.70;;
40314;SDS011;26021;45.640;11.302;2024-03-25T14:21:16;5.13;;;3.63;;
40314;SDS011;26021;45.640;11.302;2024-03-25T14:23:41;3.78;;;3.42;;
40314;SDS011;26021;45.640;11.302;2024-03-25T14:26:17;7.18;;;3.60;;
40314;SDS011;26021;45.640;11.302;2024-03-25T14:28:43;5.70;;;3.80;;
40314;SDS011;26021;45.640;11.302;2024-03-25T14:31:08;7.43;;;3.55;;